Time;durP1;ratioP1;P1;durP2;ratioP2;P2;SDS_P1;SDS_P2;PMS_P1;PMS_P2;Temp;Humidity;BMP_temperature;BMP_pressure;BME280_temperature;BME280_humidity;BME280_pressure;Samples;Min_cycle;Max_cycle;Signal;HPM_P1;HPM_P2
2021/10/04 00:00:57;;;;;;;0.98;0.90;;;21.40;50.70;;;25.35;33.94;100882.00;5094644;28;20047;-10
2021/10/04 00:03:22;;;;;;;0.88;0.88;;;21.40;50.80;;;25.36;33.88;100886.41;5112609;28;20052;-10
2021/10/04 00:05:48;;;;;;;0.85;0.80;;;21.40;50.70;;;25.36;34.02;100872.13;5112589;28;20036;-10
2021/10/04 00:08:14;;;;;;;1.00;0.90;;;21.40;50.80;;;25.35;33.84;100876.66;5112324;28;20040;-10
2021/10/04 00:10:40;;;;;;;0.98;0.88;;;21.40;50.60;;;25.33;33.99;100887.47;5112403;28;20039;-10
2021/10/04 00:13:06;;;;;;;0.80;0.80;;;21.40;50.60;;;25.35;33.85;100891.88;5112356;28;20392;-10
2021/10/04 00:15:32;;;;;;;0.82;0.82;;;21.50;50.70;;;25.36;33.86;100904.25;5112464;28;20051;-10
2021/10/04 00:18:00;;;;;;;0.73;0.73;;;21.50;50.70;;;25.35;33.92;100898.06;5094275;28;20156;-10
2021/10/04 00:20:27;;;;;;;0.80;0.80;;;21.50;50.70;;;25.33;33.93;100908.88;5112427;28;20040;-10
2021/10/04 00:22:55;;;;;;;0.80;0.80;;;21.50;50.70;;;25.32;34.05;100901.81;5112447;28;20043;-10
2021/10/04 00:25:21;;;;;;;0.85;0.82;;;21.40;50.60;;;25.35;33.87;100914.13;5112583;28;20066;-10
2021/10/04 00:27:47;;;;;;;0.90;0.90;;;21.40;50.70;;;25.35;33.84;100908.78;5112225;28;20036;-10
2021/10/04 00:30:13;;;;;;;0.80;0.80;;;21.50;50.90;;;25.33;33.94;100918.75;5113598;28;20382;-10
2021/10/04 00:32:43;;;;;;;0.80;0.80;;;21.40;51.30;;;25.35;34.03;100921.31;5115696;28;20047;-10
2021/10/04 00:35:11;;;;;;;1.20;1.02;;;21.40;50.80;;;25.34;33.99;100925.78;5115762;28;20071;-10
2021/10/04 00:37:38;;;;;;;0.93;0.93;;;21.40;50.80;;;25.35;34.03;100932.00;5115640;28;20047;-10
2021/10/04 00:40:10;;;;;;;1.02;0.93;;;21.40;50.70;;;25.31;34.02;100937.59;5115721;28;20051;-10
2021/10/04 00:42:36;;;;;;;0.80;0.80;;;21.50;50.70;;;25.36;33.87;100941.72;5115566;28;20054;-10
2021/10/04 00:45:03;;;;;;;0.80;0.80;;;21.40;50.60;;;25.35;33.89;100942.72;5115888;28;20083;-10
2021/10/04 00:47:29;;;;;;;0.90;0.90;;;21.40;50.60;;;25.32;33.95;100936.63;5115322;28;20134;-10
2021/10/04 00:49:55;;;;;;;0.80;0.80;;;21.40;50.70;;;25.34;33.92;100936.50;5097362;28;20053;-10
2021/10/04 00:52:22;;;;;;;0.80;0.80;;;21.40;50.70;;;25.33;33.81;100946.34;5097428;28;20043;-10
2021/10/04 00:54:49;;;;;;;0.82;0.82;;;21.40;50.80;;;25.32;33.94;100936.63;5097103;28;20051;-10
2021/10/04 00:57:15;;;;;;;0.80;0.80;;;21.40;50.90;;;25.35;33.87;100948.06;5096987;28;20059;-10
2021/10/04 00:59:41;;;;;;;0.90;0.90;;;21.40;50.80;;;25.33;33.99;100949.03;5115307;28;20043;-10
2021/10/04 01:02:07;;;;;;;1.00;0.93;;;21.40;50.80;;;25.31;33.94;100944.78;5097564;28;20047;-10
2021/10/04 01:04:33;;;;;;;1.20;1.10;;;21.40;50.80;;;25.32;33.92;100952.66;5115128;28;20134;-10
2021/10/04 01:07:01;;;;;;;1.30;1.20;;;21.40;50.80;;;25.30;34.03;100957.31;5115096;28;20048;-10
2021/10/04 01:09:27;;;;;;;1.00;0.90;;;21.40;50.90;;;25.31;33.97;100963.53;5095000;28;20456;-10
2021/10/04 01:11:57;;;;;;;0.80;0.80;;;21.40;50.90;;;25.29;34.09;100960.09;5096908;28;20065;-10
2021/10/04 01:14:24;;;;;;;1.13;1.02;;;21.40;50.90;;;25.33;33.83;100969.59;5114852;28;20403;-10
2021/10/04 01:16:51;;;;;;;0.90;0.90;;;21.40;50.90;;;25.31;34.02;100960.84;5115028;28;20043;-9
2021/10/04 01:19:17;;;;;;;1.10;1.00;;;21.40;50.90;;;25.32;34.00;100970.56;5115308;28;20048;-10
2021/10/04 01:21:44;;;;;;;0.70;0.70;;;21.40;50.90;;;25.28;33.98;100969.97;5115318;28;20391;-10
2021/10/04 01:24:11;;;;;;;1.05;0.95;;;21.30;50.90;;;25.29;34.15;100974.34;5114959;28;20051;-10
2021/10/04 01:26:37;;;;;;;0.80;0.80;;;21.30;50.90;;;25.31;34.06;100974.22;5115052;28;20104;-10
2021/10/04 01:29:03;;;;;;;0.85;0.85;;;21.40;50.80;;;25.28;33.94;100977.16;5114692;28;20053;-9
2021/10/04 01:31:30;;;;;;;1.15;1.05;;;21.30;50.90;;;25.28;34.11;100983.34;5114869;28;20110;-10
2021/10/04 01:33:56;;;;;;;0.93;0.93;;;21.30;51.00;;;25.30;34.04;100978.72;5130331;28;20052;-10
2021/10/04 01:36:25;;;;;;;0.80;0.80;;;21.30;51.10;;;25.29;34.03;100970.81;5114578;28;20044;-10
2021/10/04 01:38:52;;;;;;;1.10;1.00;;;21.30;51.00;;;25.30;34.12;100992.09;5114705;28;20462;-10
2021/10/04 01:41:18;;;;;;;0.98;0.93;;;21.30;51.10;;;25.28;34.05;100990.53;5113672;28;20487;-10
2021/10/04 01:43:45;;;;;;;0.90;0.90;;;21.30;51.10;;;25.28;34.07;101002.06;5114640;28;20056;-10
2021/10/04 01:46:11;;;;;;;0.98;0.80;;;21.30;51.10;;;25.27;33.99;101011.06;5114565;28;20479;-10
2021/10/04 01:48:37;;;;;;;0.85;0.85;;;21.30;51.00;;;25.27;34.03;101015.56;5114837;28;20039;-10
2021/10/04 01:51:03;;;;;;;0.80;0.80;;;21.30;51.00;;;25.26;33.97;101014.72;5114854;28;20047;-10
2021/10/04 01:53:30;;;;;;;0.80;0.80;;;21.30;51.10;;;25.25;33.95;101012.97;5114440;28;20039;-10
2021/10/04 01:55:56;;;;;;;0.85;0.85;;;21.30;51.10;;;25.25;34.05;101010.31;5114694;28;20429;-10
2021/10/04 01:58:22;;;;;;;0.80;0.80;;;21.20;51.10;;;25.29;34.11;101025.19;5114468;28;20048;-10
2021/10/04 02:00:48;;;;;;;0.80;0.80;;;21.30;51.20;;;25.29;33.95;101035.91;5114079;28;20066;-10
2021/10/04 02:03:14;;;;;;;0.88;0.80;;;21.30;51.10;;;25.28;33.83;101028.00;5114367;28;20078;-10
2021/10/04 02:05:39;;;;;;;0.70;0.70;;;21.30;51.10;;;25.28;34.02;101028.84;5114295;28;20052;-10
2021/10/04 02:08:06;;;;;;;0.95;0.95;;;21.30;51.20;;;25.27;34.05;101027.13;5114487;28;20044;-10
2021/10/04 02:10:36;;;;;;;1.52;1.10;;;21.20;51.10;;;25.25;33.95;101029.03;5095818;28;20070;-10
2021/10/04 02:13:05;;;;;;;0.83;0.83;;;21.30;51.20;;;25.26;34.08;101030.78;5114165;28;20088;-10
2021/10/04 02:15:31;;;;;;;0.88;0.88;;;21.20;51.10;;;25.26;34.04;101037.91;5114173;28;20498;-10
2021/10/04 02:17:58;;;;;;;0.98;0.90;;;21.20;51.10;;;25.24;34.09;101054.13;5114087;28;20047;-10
2021/10/04 02:20:29;;;;;;;1.10;1.00;;;21.20;51.10;;;25.26;34.02;101057.53;5114113;28;20058;-10
2021/10/04 02:22:56;;;;;;;0.80;0.80;;;21.30;51.20;;;25.28;34.03;101057.44;5114444;28;20044;-10
2021/10/04 02:25:22;;;;;;;0.82;0.82;;;21.20;51.20;;;25.26;34.09;101065.56;5114234;28;20047;-10
2021/10/04 02:27:49;;;;;;;0.90;0.90;;;21.20;51.30;;;25.24;34.00;101051.44;5113740;28;20066;-10
2021/10/04 02:30:20;;;;;;;1.00;0.90;;;21.20;51.20;;;25.25;34.22;101060.31;5113931;28;20181;-10
2021/10/04 02:32:47;;;;;;;0.88;0.88;;;21.20;51.20;;;25.26;34.07;101060.22;5096130;28;20097;-10
2021/10/04 02:35:13;;;;;;;0.70;0.70;;;21.20;51.20;;;25.25;33.98;101069.19;5114255;28;20044;-10
2021/10/04 02:37:40;;;;;;;0.88;0.80;;;21.20;51.30;;;25.25;34.08;101063.00;5112123;28;20492;-10
2021/10/04 02:40:08;;;;;;;0.70;0.70;;;21.20;51.20;;;25.26;33.96;101048.63;5113986;28;20047;-10
2021/10/04 02:42:34;;;;;;;1.00;0.90;;;21.20;51.20;;;25.24;33.96;101046.09;5113593;28;20527;-10
2021/10/04 02:45:00;;;;;;;0.80;0.80;;;21.20;51.30;;;25.23;34.00;101040.84;5113635;28;20044;-10
2021/10/04 02:47:27;;;;;;;0.90;0.90;;;21.20;51.30;;;25.24;34.07;101039.84;5113676;28;20090;-10
2021/10/04 02:49:53;;;;;;;0.82;0.82;;;21.20;51.30;;;25.23;33.96;101036.34;5113585;28;20047;-10
2021/10/04 02:52:21;;;;;;;0.80;0.80;;;21.20;51.30;;;25.23;33.96;101039.00;5113195;28;20526;-10
2021/10/04 02:54:49;;;;;;;1.08;0.98;;;21.20;51.30;;;25.24;34.06;101029.16;5113550;28;20046;-10
2021/10/04 02:57:15;;;;;;;0.63;0.63;;;21.20;51.30;;;25.23;34.08;101038.16;5113497;28;20128;-10
2021/10/04 02:59:41;;;;;;;0.90;0.90;;;21.20;51.30;;;25.22;34.17;101041.81;5113475;28;20101;-10
2021/10/04 03:02:07;;;;;;;0.77;0.77;;;21.20;51.20;;;25.24;34.05;101048.75;5113050;28;20051;-10
2021/10/04 03:04:33;;;;;;;1.05;1.00;;;21.20;51.30;;;25.22;34.16;101045.31;5113251;28;20138;-10
2021/10/04 03:06:59;;;;;;;0.80;0.80;;;21.20;51.30;;;25.23;34.11;101038.16;5113221;28;20051;-10
2021/10/04 03:09:25;;;;;;;0.65;0.65;;;21.20;51.30;;;25.22;34.13;101039.97;5113215;28;20503;-10
2021/10/04 03:11:51;;;;;;;0.80;0.80;;;21.20;51.40;;;25.22;34.21;101041.81;5113243;28;20544;-10
2021/10/04 03:14:17;;;;;;;1.70;0.73;;;21.10;51.30;;;25.21;34.03;101037.41;5113696;28;20457;-10
2021/10/04 03:16:42;;;;;;;0.88;0.88;;;21.10;51.40;;;25.21;34.14;101038.28;5113222;28;20075;-10
2021/10/04 03:19:09;;;;;;;1.02;0.80;;;21.10;51.40;;;25.20;34.15;101038.41;5113190;28;20047;-10
2021/10/04 03:21:35;;;;;;;0.82;0.82;;;21.10;51.40;;;25.21;34.13;101062.38;5111090;28;20441;-10
2021/10/04 03:24:00;;;;;;;0.60;0.60;;;21.10;51.50;;;25.22;34.16;101057.88;5112965;28;20104;-10
2021/10/04 03:26:26;;;;;;;0.80;0.80;;;21.10;51.50;;;25.20;34.04;101057.97;5113113;28;20475;-10
2021/10/04 03:28:52;;;;;;;0.80;0.80;;;21.10;51.50;;;25.23;34.17;101060.44;5113114;28;20043;-10
2021/10/04 03:31:18;;;;;;;0.82;0.82;;;21.10;51.50;;;25.21;34.14;101062.38;5113051;28;20177;-10
2021/10/04 03:33:43;;;;;;;0.90;0.82;;;21.10;51.40;;;25.26;34.25;101072.69;5112803;28;20454;-10
2021/10/04 03:36:09;;;;;;;0.77;0.77;;;21.10;51.40;;;25.26;34.06;101073.59;5113333;28;20050;-10
2021/10/04 03:38:35;;;;;;;0.85;0.80;;;21.10;51.40;;;25.25;34.14;101071.00;5112680;28;20136;-10
2021/10/04 03:41:01;;;;;;;0.70;0.70;;;21.10;51.40;;;25.26;34.03;101072.69;5113012;28;20126;-10
2021/10/04 03:43:27;;;;;;;0.70;0.70;;;21.10;51.40;;;25.27;34.08;101077.97;5112756;28;20065;-10
2021/10/04 03:45:52;;;;;;;0.88;0.75;;;21.20;51.40;;;25.29;33.98;101088.56;5111133;28;20047;-10
2021/10/04 03:48:18;;;;;;;0.70;0.70;;;21.20;51.30;;;25.30;34.05;101083.09;5128298;28;20063;-10
2021/10/04 03:50:44;;;;;;;0.95;0.80;;;21.20;51.20;;;25.29;33.98;101080.53;5094503;28;20056;-10
2021/10/04 03:53:10;;;;;;;0.80;0.80;;;21.20;51.20;;;25.31;34.04;101087.47;5112711;28;20052;-10
2021/10/04 03:55:36;;;;;;;0.93;0.82;;;21.20;51.20;;;25.32;34.01;101083.81;5112903;28;20096;-10
2021/10/04 03:58:02;;;;;;;0.77;0.70;;;21.30;51.20;;;25.34;34.05;101081.03;5112894;28;20054;-10
2021/10/04 04:00:28;;;;;;;0.88;0.75;;;21.30;51.10;;;25.35;34.11;101081.91;5112627;28;20073;-10
2021/10/04 04:02:54;;;;;;;0.80;0.80;;;21.30;51.10;;;25.36;34.03;101078.22;5112664;28;20043;-10
2021/10/04 04:05:21;;;;;;;1.48;0.77;;;21.30;51.00;;;25.36;34.01;101068.41;5114519;28;20058;-10
2021/10/04 04:07:47;;;;;;;0.70;0.70;;;21.40;50.90;;;25.37;33.89;101074.59;5116042;28;20044;-10
2021/10/04 04:10:16;;;;;;;0.65;0.65;;;21.40;50.90;;;25.38;33.96;101085.19;5116113;28;20051;-9
2021/10/04 04:12:42;;;;;;;0.70;0.70;;;21.40;50.80;;;25.39;33.96;101083.34;5116464;28;20040;-10
2021/10/04 04:15:09;;;;;;;0.60;0.60;;;21.40;50.90;;;25.39;33.97;101080.69;5097724;28;20518;-10
2021/10/04 04:17:35;;;;;;;0.80;0.75;;;21.40;50.90;;;25.39;33.94;101086.03;5115917;28;20055;-10
2021/10/04 04:20:03;;;;;;;0.85;0.80;;;21.40;51.00;;;25.38;33.92;101079.00;5115948;28;20047;-10
2021/10/04 04:22:30;;;;;;;0.55;0.55;;;21.30;51.00;;;25.39;33.99;101086.88;5115761;28;20131;-10
2021/10/04 04:24:56;;;;;;;0.70;0.70;;;21.30;51.00;;;25.42;33.94;101113.41;5093385;28;20497;-10
2021/10/04 04:27:24;;;;;;;0.70;0.70;;;21.30;51.00;;;25.43;33.88;101119.63;5115782;28;20051;-10
2021/10/04 04:29:51;;;;;;;0.57;0.57;;;21.30;51.00;;;25.43;33.92;101122.31;5115653;28;20055;-10
2021/10/04 04:32:18;;;;;;;0.80;0.80;;;21.30;51.00;;;25.40;33.90;101112.69;5115855;28;20052;-10
2021/10/04 04:34:43;;;;;;;0.77;0.77;;;21.30;51.00;;;25.41;33.86;101114.41;5115281;28;20539;-10
2021/10/04 04:37:09;;;;;;;0.77;0.77;;;21.30;51.10;;;25.43;33.91;101123.16;5115677;28;20055;-10
2021/10/04 04:39:35;;;;;;;0.55;0.55;;;21.30;51.20;;;25.41;33.88;101124.22;5115477;28;20055;-10
2021/10/04 04:42:04;;;;;;;0.70;0.70;;;21.30;51.20;;;25.39;33.85;101118.16;5115598;28;20118;-10
2021/10/04 04:44:29;;;;;;;0.75;0.75;;;21.30;51.10;;;25.42;33.92;101131.31;5113945;28;20047;-10
2021/10/04 04:46:56;;;;;;;0.70;0.70;;;21.30;51.10;;;25.39;33.80;101140.41;5115603;28;20388;-10
2021/10/04 04:49:29;;;;;;;0.65;0.65;;;21.30;51.00;;;25.41;33.96;101133.13;5115466;28;20403;-10
2021/10/04 04:51:57;;;;;;;0.60;0.60;;;21.30;50.90;;;25.42;33.91;101147.38;5115540;28;20066;-10
2021/10/04 04:54:25;;;;;;;0.80;0.80;;;21.30;51.00;;;25.39;33.92;101143.09;5115420;28;20138;-10
2021/10/04 04:56:54;;;;;;;0.77;0.77;;;21.30;51.00;;;25.40;33.98;101147.47;5115500;28;20073;-10
2021/10/04 04:59:21;;;;;;;0.82;0.82;;;21.30;51.10;;;25.42;33.82;101150.88;5115701;28;20044;-10
2021/10/04 05:01:47;;;;;;;0.70;0.70;;;21.30;51.10;;;25.39;33.84;101142.25;5096994;28;20075;-10
2021/10/04 05:04:13;;;;;;;0.80;0.80;;;21.30;51.10;;;25.40;33.89;101150.16;5115165;28;20082;-10
2021/10/04 05:06:39;;;;;;;0.60;0.60;;;21.30;51.10;;;25.41;33.85;101156.34;5115730;28;20491;-10
2021/10/04 05:09:05;;;;;;;0.90;0.90;;;21.30;51.00;;;25.43;33.94;101157.97;5115378;28;20077;-10
2021/10/04 05:11:31;;;;;;;0.70;0.70;;;21.30;51.10;;;25.43;33.86;101155.28;5115465;28;20053;-10
2021/10/04 05:13:57;;;;;;;0.70;0.70;;;21.40;51.10;;;25.43;33.88;101159.78;5115064;28;20127;-10
2021/10/04 05:16:23;;;;;;;0.70;0.70;;;21.30;50.90;;;25.43;33.85;101168.66;5113700;28;20078;-10
2021/10/04 05:18:48;;;;;;;0.70;0.70;;;21.30;51.00;;;25.42;33.92;101166.09;5115521;28;20051;-10
2021/10/04 05:21:14;;;;;;;0.90;0.90;;;21.30;51.10;;;25.41;33.97;101173.28;5114924;28;20047;-10
2021/10/04 05:23:40;;;;;;;0.70;0.70;;;21.30;51.10;;;25.40;33.72;101174.25;5114712;28;20043;-10
2021/10/04 05:26:06;;;;;;;0.65;0.65;;;21.20;51.10;;;25.40;33.78;101179.59;5114765;28;20441;-10
2021/10/04 05:28:32;;;;;;;0.70;0.70;;;21.30;51.10;;;25.39;33.88;101180.56;5114804;28;20135;-10
2021/10/04 05:30:58;;;;;;;0.73;0.73;;;21.30;51.10;;;25.39;33.84;101172.53;5114831;28;20039;-10
2021/10/04 05:33:24;;;;;;;0.60;0.60;;;21.30;51.10;;;25.44;33.88;101182.91;5114921;28;20546;-10
2021/10/04 05:35:50;;;;;;;0.70;0.70;;;21.30;51.10;;;25.41;33.98;101178.66;5114760;28;20065;-10
2021/10/04 05:38:15;;;;;;;0.77;0.75;;;21.30;50.90;;;25.41;33.92;101184.00;5115012;28;20047;-10
2021/10/04 05:40:41;;;;;;;0.95;0.60;;;21.40;51.00;;;25.42;33.84;101184.84;5114898;28;20383;-10
2021/10/04 05:43:07;;;;;;;0.80;0.80;;;21.30;51.50;;;25.40;33.86;101176.94;5114466;28;20055;-10
2021/10/04 05:45:33;;;;;;;0.63;0.63;;;21.30;51.00;;;25.42;33.75;101174.13;5114591;28;20069;-10
2021/10/04 05:47:59;;;;;;;0.90;0.80;;;21.30;51.10;;;25.39;33.80;101175.22;5114697;28;20044;-10
2021/10/04 05:50:25;;;;;;;0.70;0.70;;;21.30;51.10;;;25.40;33.81;101181.44;5114282;28;20480;-10
2021/10/04 05:52:52;;;;;;;0.80;0.80;;;21.30;51.10;;;25.41;33.73;101183.13;5114452;28;20523;-10
2021/10/04 05:55:18;;;;;;;0.70;0.70;;;21.30;51.20;;;25.38;33.86;101184.22;5114468;28;20051;-10
2021/10/04 05:57:44;;;;;;;0.88;0.85;;;21.30;51.20;;;25.41;33.83;101191.16;5096069;28;20071;-10
2021/10/04 06:00:13;;;;;;;0.70;0.70;;;21.30;51.20;;;25.40;33.79;101189.47;5115102;28;20168;-10
2021/10/04 06:02:39;;;;;;;1.35;0.90;;;21.30;51.10;;;25.41;33.88;101188.47;5096041;28;20039;-10
2021/10/04 06:05:07;;;;;;;0.82;0.80;;;21.30;51.10;;;25.41;33.88;101197.38;5114314;28;20517;-10
2021/10/04 06:07:33;;;;;;;0.73;0.70;;;21.30;51.20;;;25.39;33.73;101190.44;5114117;28;20078;-9
2021/10/04 06:09:59;;;;;;;0.52;0.52;;;21.20;51.20;;;25.37;33.97;101189.69;5114180;28;20047;-10
2021/10/04 06:12:28;;;;;;;0.80;0.80;;;21.30;51.30;;;25.38;33.88;101192.25;5114179;28;20381;-10
2021/10/04 06:15:00;;;;;;;0.82;0.82;;;21.20;51.10;;;25.40;33.78;101202.84;5114046;28;20052;-10
2021/10/04 06:17:27;;;;;;;0.60;0.60;;;21.30;50.90;;;25.40;33.94;101192.16;5095866;28;20147;-10
2021/10/04 06:19:54;;;;;;;0.75;0.75;;;21.30;50.90;;;25.41;33.86;101200.06;5113942;28;20055;-12
2021/10/04 06:22:22;;;;;;;0.77;0.70;;;21.40;50.80;;;25.42;33.82;101203.59;5114428;28;20372;-12
2021/10/04 06:24:50;;;;;;;0.75;0.75;;;21.40;51.00;;;25.44;33.81;101204.31;5114051;28;20046;-12
2021/10/04 06:27:16;;;;;;;0.70;0.70;;;21.40;51.00;;;25.41;33.77;101208.09;5113296;28;20130;-13
2021/10/04 06:29:42;;;;;;;0.70;0.70;;;21.30;51.10;;;25.41;33.88;101209.91;5113862;28;20050;-13
2021/10/04 06:32:09;;;;;;;0.90;0.80;;;21.30;51.10;;;25.38;33.82;101207.47;5114183;28;20143;-12
2021/10/04 06:34:35;;;;;;;0.60;0.60;;;21.30;51.20;;;25.39;33.80;101210.00;5113834;28;20048;-10
2021/10/04 06:37:01;;;;;;;0.70;0.70;;;21.30;51.20;;;25.39;33.85;101211.84;5113871;28;20410;-10
2021/10/04 06:39:27;;;;;;;0.80;0.80;;;21.20;51.20;;;25.41;33.86;101229.50;5113622;28;20051;-10
2021/10/04 06:41:53;;;;;;;0.88;0.70;;;21.20;51.10;;;25.38;33.97;101227.06;5114402;28;20050;-10
2021/10/04 06:44:26;;;;;;;0.63;0.63;;;21.30;51.20;;;25.40;33.83;101233.13;5113653;28;20450;-10
2021/10/04 06:46:52;;;;;;;0.60;0.60;;;21.20;51.10;;;25.40;33.85;101233.13;5113754;28;20057;-10
2021/10/04 06:49:18;;;;;;;0.85;0.65;;;21.20;51.10;;;25.39;33.94;101231.41;5113889;28;20154;-10
2021/10/04 06:51:44;;;;;;;0.60;0.60;;;21.30;51.20;;;25.42;33.89;101241.91;5114000;28;20490;-10
2021/10/04 06:54:10;;;;;;;0.90;0.60;;;21.30;51.10;;;25.42;33.91;101236.56;5113776;28;20051;-10
2021/10/04 06:56:35;;;;;;;0.63;0.63;;;21.30;51.10;;;25.41;33.83;101234.88;5095208;28;20066;-10
2021/10/04 06:59:01;;;;;;;0.77;0.77;;;21.30;51.00;;;25.44;33.82;101245.34;5113510;28;20146;-10
2021/10/04 07:01:27;;;;;;;0.98;0.80;;;21.40;50.90;;;25.43;33.83;101251.66;5113348;28;20051;-10
2021/10/04 07:03:53;;;;;;;0.80;0.80;;;21.40;50.90;;;25.47;33.87;101252.28;5113619;28;20044;-10
2021/10/04 07:06:18;;;;;;;0.68;0.68;;;21.40;50.60;;;25.49;33.80;101255.69;5113649;28;20043;-10
2021/10/04 07:08:44;;;;;;;0.60;0.60;;;21.60;50.40;;;25.47;33.71;101265.66;5113222;28;20048;-10
2021/10/04 07:11:10;;;;;;;1.75;0.80;;;21.60;50.30;;;25.50;33.73;101257.41;5095217;28;20590;-10
2021/10/04 07:13:36;;;;;;;1.27;0.70;;;21.60;50.40;;;25.51;33.69;101262.66;5113169;28;20058;-10
2021/10/04 07:16:05;;;;;;;0.50;0.50;;;21.60;50.40;;;25.52;33.80;101260.81;5113114;28;20501;-11
2021/10/04 07:18:31;;;;;;;0.70;0.70;;;21.60;50.30;;;25.60;33.75;101279.00;5113700;28;20391;-10
2021/10/04 07:20:56;;;;;;;0.70;0.70;;;21.70;50.20;;;25.59;33.71;101271.91;5113131;28;20051;-10
2021/10/04 07:23:22;;;;;;;0.85;0.70;;;21.60;50.20;;;25.60;33.71;101279.00;5113640;28;20047;-10
2021/10/04 07:25:48;;;;;;;0.65;0.65;;;21.60;50.30;;;25.62;33.59;101277.88;5112979;28;20104;-10
2021/10/04 07:28:14;;;;;;;0.80;0.80;;;21.60;50.30;;;25.62;33.53;101271.69;5112889;28;20047;-10
2021/10/04 07:30:40;;;;;;;0.70;0.70;;;21.50;50.40;;;25.61;33.56;101278.00;5113361;28;20066;-10
2021/10/04 07:33:06;;;;;;;0.75;0.75;;;21.60;50.30;;;25.62;33.57;101283.25;5113038;28;20036;-10
2021/10/04 07:35:33;;;;;;;0.70;0.68;;;21.70;50.20;;;25.63;33.58;101290.31;5112894;28;20051;-10
2021/10/04 07:38:00;;;;;;;0.88;0.80;;;21.60;50.30;;;25.66;33.65;101302.63;5113219;28;20075;-10
2021/10/04 07:40:27;;;;;;;0.70;0.70;;;21.60;50.40;;;25.66;33.52;101308.84;5114536;28;20047;-10
2021/10/04 07:42:53;;;;;;;0.70;0.70;;;21.60;50.30;;;25.67;33.45;101302.50;5116511;28;20158;-10
2021/10/04 07:45:19;;;;;;;0.70;0.70;;;21.60;50.10;;;25.66;33.55;101303.50;5117101;28;20047;-10
2021/10/04 07:47:45;;;;;;;0.70;0.70;;;21.70;50.00;;;25.68;33.49;101319.44;5116418;28;20039;-10
2021/10/04 07:50:14;;;;;;;0.63;0.63;;;21.70;50.00;;;25.66;33.51;101305.28;5116355;28;20084;-10
2021/10/04 07:52:41;;;;;;;0.63;0.63;;;21.80;50.00;;;25.69;33.42;101310.41;5116327;28;20052;-10
2021/10/04 07:55:07;;;;;;;0.57;0.57;;;21.80;50.00;;;25.68;33.46;101328.31;5116408;28;20044;-10
2021/10/04 07:57:34;;;;;;;0.60;0.60;;;21.80;49.80;;;25.69;33.42;101323.81;5116584;28;20087;-11
2021/10/04 08:00:00;;;;;;;0.50;0.50;;;21.80;49.70;;;25.70;33.45;101329.06;5116215;28;20047;-11
2021/10/04 08:02:26;;;;;;;0.60;0.60;;;21.90;49.70;;;25.70;33.28;101333.56;5116307;28;20173;-11
2021/10/04 08:04:52;;;;;;;0.60;0.60;;;21.80;49.70;;;25.69;33.25;101331.84;5116266;28;20043;-11
2021/10/04 08:07:18;;;;;;;0.82;0.70;;;21.90;49.60;;;25.70;33.49;101322.84;5116388;28;20051;-11
2021/10/04 08:09:44;;;;;;;0.60;0.55;;;21.80;49.80;;;25.70;33.47;101315.66;5115585;28;20070;-11
2021/10/04 08:12:10;;;;;;;0.60;0.60;;;21.80;49.70;;;25.72;33.46;101320.06;5115989;28;20051;-11
2021/10/04 08:14:36;;;;;;;0.68;0.68;;;21.90;49.60;;;25.73;33.34;101329.78;5116034;28;20054;-11
2021/10/04 08:17:03;;;;;;;0.95;0.77;;;21.90;49.60;;;25.73;33.44;101336.03;5116207;28;20051;-11
2021/10/04 08:19:29;;;;;;;0.70;0.70;;;21.80;49.70;;;25.72;33.34;101328.94;5116142;28;20138;-11
2021/10/04 08:21:56;;;;;;;0.60;0.60;;;21.80;49.70;;;25.73;33.36;101337.81;5116301;28;20131;-11
2021/10/04 08:24:22;;;;;;;0.60;0.60;;;21.90;49.60;;;25.74;33.32;101332.34;5115976;28;20052;-11
2021/10/04 08:26:48;;;;;;;1.30;0.70;;;21.90;49.50;;;25.76;33.35;101342.94;5115932;28;20073;-11
2021/10/04 08:29:14;;;;;;;0.77;0.77;;;21.90;49.40;;;25.73;33.32;101340.50;5115820;28;20052;-11
2021/10/04 08:31:40;;;;;;;0.70;0.70;;;22.00;49.40;;;25.75;33.30;101334.06;5116215;28;20051;-11
2021/10/04 08:34:06;;;;;;;0.90;0.90;;;22.00;49.40;;;25.77;33.38;101339.31;5097482;28;20048;-11
2021/10/04 08:36:34;;;;;;;1.17;0.90;;;21.90;49.50;;;25.75;33.31;101339.44;5116051;28;20101;-11
2021/10/04 08:39:03;;;;;;;0.70;0.70;;;21.90;49.70;;;25.76;33.20;101338.47;5115660;28;20044;-11
2021/10/04 08:41:31;;;;;;;0.73;0.73;;;21.90;49.70;;;25.76;33.24;101326.88;5097120;28;20479;-11
2021/10/04 08:43:58;;;;;;;0.60;0.60;;;21.80;49.60;;;25.74;33.31;101318.97;5115948;28;20047;-11
2021/10/04 08:46:23;;;;;;;1.67;0.60;;;21.90;49.60;;;25.78;33.36;101327.66;5097349;28;20070;-11
2021/10/04 08:48:49;;;;;;;0.65;0.65;;;21.90;49.50;;;25.79;33.25;101327.50;5097331;28;20051;-11
2021/10/04 08:51:16;;;;;;;0.70;0.70;;;21.90;49.60;;;25.77;33.28;101312.53;5115212;28;20074;-10
2021/10/04 08:53:42;;;;;;;0.70;0.70;;;21.90;49.50;;;25.80;33.32;101329.22;5115798;28;20040;-11
2021/10/04 08:56:08;;;;;;;0.60;0.60;;;22.00;49.50;;;25.81;33.36;101330.94;5115774;28;20055;-10
2021/10/04 08:58:35;;;;;;;0.80;0.55;;;22.00;49.50;;;25.81;33.34;101327.38;5115367;28;20052;-10
2021/10/04 09:01:05;;;;;;;0.52;0.52;;;22.00;49.50;;;25.81;33.41;101340.78;5115275;28;20101;-10
2021/10/04 09:03:50;;;;;;;0.90;0.70;;;22.00;49.50;;;25.79;33.27;101332.84;5115282;28;20051;-12
2021/10/04 09:06:26;;;;;;;0.65;0.65;;;22.00;49.50;;;25.82;33.32;101335.31;5115167;28;20047;-12
2021/10/04 09:08:58;;;;;;;0.63;0.63;;;22.00;49.50;;;25.83;33.27;101346.91;5115078;28;20051;-12
2021/10/04 09:11:39;;;;;;;0.80;0.65;;;22.00;49.50;;;25.81;33.39;101341.66;5115474;28;20472;-12
2021/10/04 09:14:29;;;;;;;1.67;0.60;;;22.00;49.40;;;25.82;33.24;101345.19;5115222;28;20055;-12
2021/10/04 09:17:01;;;;;;;0.60;0.60;;;22.00;49.40;;;25.82;33.10;101343.34;5115313;28;20464;-12
2021/10/04 09:19:41;;;;;;;0.52;0.52;;;22.00;49.40;;;25.78;33.22;101328.50;5114922;28;20142;-12
2021/10/04 09:22:22;;;;;;;0.70;0.70;;;21.90;49.60;;;25.82;33.24;101337.16;5115294;28;20900;-12
2021/10/04 09:24:47;;;;;;;0.63;0.63;;;21.90;49.60;;;25.83;33.21;101325.47;5115215;28;20056;-12
2021/10/04 09:27:42;;;;;;;0.63;0.63;;;21.90;49.50;;;25.82;33.20;101335.31;5114782;28;20092;-12
2021/10/04 09:30:27;;;;;;;0.60;0.60;;;21.90;49.40;;;25.79;33.21;101342.72;5114862;28;20575;-12
2021/10/04 09:33:00;;;;;;;0.82;0.80;;;21.90;49.40;;;25.79;33.23;101356.97;5115140;28;20122;-12
2021/10/04 09:35:31;;;;;;;0.60;0.60;;;22.00;49.40;;;25.78;33.19;101360.63;5114689;28;20044;-12
2021/10/04 09:37:59;;;;;;;0.45;0.45;;;22.00;49.40;;;25.80;33.20;101366.72;5114743;28;20101;-12
2021/10/04 09:40:31;;;;;;;0.52;0.52;;;22.00;49.40;;;25.77;33.24;101358.91;5114731;28;20083;-12
2021/10/04 09:42:58;;;;;;;0.60;0.60;;;22.00;49.40;;;25.79;33.18;101367.69;5115030;28;20381;-12
2021/10/04 09:45:26;;;;;;;0.73;0.73;;;21.90;49.40;;;25.77;33.27;101364.28;5079498;28;20077;-12
2021/10/04 09:47:54;;;;;;;0.80;0.73;;;22.00;49.40;;;25.78;33.22;101370.50;5114583;28;20051;-12
2021/10/04 09:50:30;;;;;;;1.08;0.70;;;22.00;49.40;;;25.74;33.12;101372.53;5114449;28;20050;-12
2021/10/04 09:52:57;;;;;;;0.60;0.60;;;22.00;49.40;;;25.79;33.22;101374.88;5114579;28;20069;-12
2021/10/04 09:55:44;;;;;;;1.10;0.77;;;22.00;49.50;;;25.77;33.21;101371.47;5114424;28;20138;-12
2021/10/04 09:58:15;;;;;;;0.50;0.50;;;22.00;49.50;;;25.77;33.25;101368.78;5114128;28;20130;-12
2021/10/04 10:00:49;;;;;;;0.75;0.70;;;22.00;49.40;;;25.76;33.27;101361.69;5114499;28;20387;-12
2021/10/04 10:03:20;;;;;;;1.27;0.82;;;22.00;49.40;;;25.76;33.10;101351.00;5113875;28;20126;-12
2021/10/04 10:05:53;;;;;;;;;;;22.00;49.40;;;25.89;33.07;101347.28;5114826;28;20050;-12
2021/10/04 10:08:24;;;;;;;0.70;0.70;;;22.00;49.30;;;25.81;33.20;101347.00;5113921;28;19922;-12
2021/10/04 10:10:55;;;;;;;0.60;0.60;;;22.00;49.30;;;25.80;33.25;101349.81;5114319;28;20502;-12
2021/10/04 10:13:24;;;;;;;0.60;0.60;;;22.00;49.20;;;25.79;33.19;101348.09;5114371;28;20039;-12